sensor_id;sensor_type;location;lat;lon;timestamp;pressure;altitude;pressure_sealevel;temperature;humidity
21988;BME280;11158;53.404;-1.510;2023-07-29T00:00:50;99233.97;;;20.64;53.16
21988;BME280;11158;53.404;-1.510;2023-07-29T00:03:34;99228.53;;;20.69;53.20
21988;BME280;11158;53.404;-1.510;2023-07-29T00:06:18;99237.44;;;20.80;52.69
21988;BME280;11158;53.404;-1.510;2023-07-29T00:09:02;99229.03;;;20.77;53.09
21988;BME280;11158;53.404;-1.510;2023-07-29T00:11:47;99233.22;;;20.43;53.75
21988;BME280;11158;53.404;-1.510;2023-07-29T00:14:31;99238.97;;;20.26;54.04
21988;BME280;11158;53.404;-1.510;2023-07-29T00:17:15;99230.91;;;20.06;54.69
21988;BME280;11158;53.404;-1.510;2023-07-29T00:19:59;99224.44;;;19.61;55.66
21988;BME280;11158;53.404;-1.510;2023-07-29T00:22:43;99224.38;;;20.02;54.78
21988;BME280;11158;53.404;-1.510;2023-07-29T00:25:27;99224.56;;;20.31;54.22
21988;BME280;11158;53.404;-1.510;2023-07-29T00:28:12;99218.41;;;20.20;54.23
21988;BME280;11158;53.404;-1.510;2023-07-29T00:30:57;99213.59;;;19.86;55.19
21988;BME280;11158;53.404;-1.510;2023-07-29T00:33:41;99218.09;;;20.32;54.15
21988;BME280;11158;53.404;-1.510;2023-07-29T00:36:25;99212.88;;;20.41;53.70
21988;BME280;11158;53.404;-1.510;2023-07-29T00:39:09;99222.06;;;20.50;53.61
21988;BME280;11158;53.404;-1.510;2023-07-29T00:41:53;99208.44;;;20.65;53.28
21988;BME280;11158;53.404;-1.510;2023-07-29T00:44:37;99207.91;;;20.68;52.89
21988;BME280;11158;53.404;-1.510;2023-07-29T00:47:22;99210.53;;;20.19;54.01
21988;BME280;11158;53.404;-1.510;2023-07-29T00:50:09;99205.22;;;20.53;53.36
21988;BME280;11158;53.404;-1.510;2023-07-29T00:52:56;99206.72;;;20.20;54.10
21988;BME280;11158;53.404;-1.510;2023-07-29T00:55:41;99200.41;;;20.40;53.77
21988;BME280;11158;53.404;-1.510;2023-07-29T00:58:25;99197.56;;;20.00;54.58
21988;BME280;11158;53.404;-1.510;2023-07-29T01:01:09;99201.69;;;19.77;55.19
21988;BME280;11158;53.404;-1.510;2023-07-29T01:03:53;99181.81;;;19.97;55.02
21988;BME280;11158;53.404;-1.510;2023-07-29T01:09:59;99201.16;;;19.70;55.81
21988;BME280;11158;53.404;-1.510;2023-07-29T01:18:32;99181.06;;;19.86;55.28
21988;BME280;11158;53.404;-1.510;2023-07-29T01:21:17;99182.91;;;20.01;54.83
21988;BME280;11158;53.404;-1.510;2023-07-29T01:24:02;99191.28;;;20.10;54.65
21988;BME280;11158;53.404;-1.510;2023-07-29T01:26:46;99197.34;;;19.76;55.70
21988;BME280;11158;53.404;-1.510;2023-07-29T01:29:31;99186.91;;;20.19;54.56
21988;BME280;11158;53.404;-1.510;2023-07-29T01:33:25;99189.59;;;20.24;53.77
21988;BME280;11158;53.404;-1.510;2023-07-29T01:35:42;99180.31;;;20.41;53.42
21988;BME280;11158;53.404;-1.510;2023-07-29T01:38:32;99183.59;;;20.38;53.61
21988;BME280;11158;53.404;-1.510;2023-07-29T01:41:18;99181.94;;;20.42;53.79
21988;BME280;11158;53.404;-1.510;2023-07-29T01:44:04;99192.38;;;20.04;55.01
21988;BME280;11158;53.404;-1.510;2023-07-29T01:46:49;99183.31;;;20.39;53.83
21988;BME280;11158;53.404;-1.510;2023-07-29T01:49:33;99176.56;;;20.26;54.47
21988;BME280;11158;53.404;-1.510;2023-07-29T01:52:18;99181.47;;;20.24;54.51
21988;BME280;11158;53.404;-1.510;2023-07-29T01:55:02;99171.25;;;20.71;53.13
21988;BME280;11158;53.404;-1.510;2023-07-29T01:57:47;99171.59;;;20.93;52.19
21988;BME280;11158;53.404;-1.510;2023-07-29T02:00:31;99169.91;;;20.63;52.73
21988;BME280;11158;53.404;-1.510;2023-07-29T02:03:15;99172.97;;;20.96;52.11
21988;BME280;11158;53.404;-1.510;2023-07-29T02:05:59;99180.88;;;20.38;53.14
21988;BME280;11158;53.404;-1.510;2023-07-29T02:08:44;99185.13;;;20.54;52.54
21988;BME280;11158;53.404;-1.510;2023-07-29T02:11:28;99186.75;;;20.55;52.31
21988;BME280;11158;53.404;-1.510;2023-07-29T02:14:12;99193.34;;;20.34;53.05
21988;BME280;11158;53.404;-1.510;2023-07-29T02:16:56;99198.09;;;20.73;52.27
21988;BME280;11158;53.404;-1.510;2023-07-29T02:19:40;99185.00;;;20.85;51.63
21988;BME280;11158;53.404;-1.510;2023-07-29T02:22:24;99187.56;;;21.05;50.92
21988;BME280;11158;53.404;-1.510;2023-07-29T02:25:08;99182.69;;;21.07;50.66
21988;BME280;11158;53.404;-1.510;2023-07-29T02:27:53;99189.53;;;20.95;51.40
21988;BME280;11158;53.404;-1.510;2023-07-29T02:30:41;99189.72;;;21.08;51.13
21988;BME280;11158;53.404;-1.510;2023-07-29T02:33:25;99173.91;;;21.16;50.44
21988;BME280;11158;53.404;-1.510;2023-07-29T02:36:11;99178.91;;;21.32;49.87
21988;BME280;11158;53.404;-1.510;2023-07-29T02:38:56;99167.41;;;21.46;49.87
21988;BME280;11158;53.404;-1.510;2023-07-29T02:41:40;99167.13;;;21.47;49.17
21988;BME280;11158;53.404;-1.510;2023-07-29T02:44:24;99158.88;;;21.23;49.48
21988;BME280;11158;53.404;-1.510;2023-07-29T02:47:08;99165.06;;;20.55;51.01
21988;BME280;11158;53.404;-1.510;2023-07-29T02:49:52;99159.09;;;20.53;51.14
21988;BME280;11158;53.404;-1.510;2023-07-29T02:52:36;99167.63;;;20.26;51.46
21988;BME280;11158;53.404;-1.510;2023-07-29T02:55:20;99169.28;;;20.17;51.49
21988;BME280;11158;53.404;-1.510;2023-07-29T02:58:05;99163.78;;;20.37;51.22
21988;BME280;11158;53.404;-1.510;2023-07-29T03:00:49;99166.09;;;20.04;51.91
21988;BME280;11158;53.404;-1.510;2023-07-29T03:03:34;99164.25;;;19.84;52.47
21988;BME280;11158;53.404;-1.510;2023-07-29T03:06:18;99165.34;;;19.63;53.23
21988;BME280;11158;53.404;-1.510;2023-07-29T03:09:03;99155.31;;;19.63;52.74
21988;BME280;11158;53.404;-1.510;2023-07-29T03:11:47;99156.56;;;20.12;51.63
21988;BME280;11158;53.404;-1.510;2023-07-29T03:14:31;99152.38;;;20.35;50.71
21988;BME280;11158;53.404;-1.510;2023-07-29T03:17:15;99146.63;;;20.47;50.11
21988;BME280;11158;53.404;-1.510;2023-07-29T03:19:59;99148.38;;;20.22;49.74
21988;BME280;11158;53.404;-1.510;2023-07-29T03:22:44;99151.09;;;20.27;50.35
21988;BME280;11158;53.404;-1.510;2023-07-29T03:25:29;99151.75;;;20.64;49.31
21988;BME280;11158;53.404;-1.510;2023-07-29T03:28:13;99150.13;;;20.53;49.09
21988;BME280;11158;53.404;-1.510;2023-07-29T03:30:57;99140.75;;;20.29;50.16
21988;BME280;11158;53.404;-1.510;2023-07-29T03:33:41;99145.16;;;20.15;50.56
21988;BME280;11158;53.404;-1.510;2023-07-29T03:36:26;99138.22;;;20.48;49.59
21988;BME280;11158;53.404;-1.510;2023-07-29T03:39:10;99138.19;;;19.94;50.75
21988;BME280;11158;53.404;-1.510;2023-07-29T03:41:54;99134.81;;;20.27;50.17
21988;BME280;11158;53.404;-1.510;2023-07-29T03:44:38;99138.75;;;20.45;49.60
21988;BME280;11158;53.404;-1.510;2023-07-29T03:47:23;99140.63;;;20.50;49.65
21988;BME280;11158;53.404;-1.510;2023-07-29T03:50:08;99139.56;;;20.51;49.47
21988;BME280;11158;53.404;-1.510;2023-07-29T03:52:52;99151.56;;;20.40;49.77
21988;BME280;11158;53.404;-1.510;2023-07-29T03:55:36;99136.00;;;20.61;49.12
21988;BME280;11158;53.404;-1.510;2023-07-29T03:58:20;99139.50;;;20.66;48.74
21988;BME280;11158;53.404;-1.510;2023-07-29T04:01:04;99142.31;;;20.41;49.34
21988;BME280;11158;53.404;-1.510;2023-07-29T04:03:48;99141.59;;;20.20;50.36
21988;BME280;11158;53.404;-1.510;2023-07-29T04:06:32;99146.63;;;20.47;49.50
21988;BME280;11158;53.404;-1.510;2023-07-29T04:09:16;99132.53;;;20.45;49.44
21988;BME280;11158;53.404;-1.510;2023-07-29T04:12:00;99142.84;;;20.48;49.07
21988;BME280;11158;53.404;-1.510;2023-07-29T04:14:44;99137.91;;;20.55;48.69
21988;BME280;11158;53.404;-1.510;2023-07-29T04:17:28;99150.59;;;20.70;48.45
21988;BME280;11158;53.404;-1.510;2023-07-29T04:20:12;99145.03;;;20.90;48.19
21988;BME280;11158;53.404;-1.510;2023-07-29T04:22:56;99148.66;;;20.76;48.69
21988;BME280;11158;53.404;-1.510;2023-07-29T04:25:40;99158.38;;;20.87;47.96
21988;BME280;11158;53.404;-1.510;2023-07-29T04:28:25;99155.81;;;19.91;50.54
21988;BME280;11158;53.404;-1.510;2023-07-29T04:31:09;99155.59;;;19.46;52.04
21988;BME280;11158;53.404;-1.510;2023-07-29T04:33:53;99150.75;;;20.39;49.71
21988;BME280;11158;53.404;-1.510;2023-07-29T04:36:37;99150.34;;;20.66;48.61
21988;BME280;11158;53.404;-1.510;2023-07-29T04:39:21;99148.00;;;20.89;48.18
21988;BME280;11158;53.404;-1.510;2023-07-29T04:42:06;99151.91;;;20.78;48.30
21988;BME280;11158;53.404;-1.510;2023-07-29T04:44:50;99142.22;;;20.61;48.90
21988;BME280;11158;53.404;-1.510;2023-07-29T04:47:34;99147.53;;;20.82;48.04
21988;BME280;11158;53.404;-1.510;2023-07-29T04:50:18;99146.88;;;20.95;48.02
21988;BME280;11158;53.404;-1.510;2023-07-29T04:53:02;99151.00;;;20.92;48.11
21988;BME280;11158;53.404;-1.510;2023-07-29T04:55:46;99145.56;;;20.48;48.96
21988;BME280;11158;53.404;-1.510;2023-07-29T04:58:30;99142.78;;;20.58;49.20
21988;BME280;11158;53.404;-1.510;2023-07-29T05:01:18;99135.63;;;21.12;47.78
21988;BME280;11158;53.404;-1.510;2023-07-29T05:04:02;99143.22;;;21.15;47.97
21988;BME280;11158;53.404;-1.510;2023-07-29T05:06:47;99136.13;;;21.19;48.06
21988;BME280;11158;53.404;-1.510;2023-07-29T05:09:31;99143.25;;;20.70;49.13
21988;BME280;11158;53.404;-1.510;2023-07-29T05:12:15;99149.81;;;21.04;48.59
21988;BME280;11158;53.404;-1.510;2023-07-29T05:14:59;99153.34;;;20.65;49.19
21988;BME280;11158;53.404;-1.510;2023-07-29T05:17:43;99151.16;;;20.67;49.03
21988;BME280;11158;53.404;-1.510;2023-07-29T05:20:27;99153.41;;;20.49;49.79
21988;BME280;11158;53.404;-1.510;2023-07-29T05:23:12;99158.69;;;20.75;49.15
21988;BME280;11158;53.404;-1.510;2023-07-29T05:25:56;99162.56;;;20.69;49.42
21988;BME280;11158;53.404;-1.510;2023-07-29T05:28:40;99165.63;;;20.47;49.75
21988;BME280;11158;53.404;-1.510;2023-07-29T05:31:24;99163.63;;;20.68;49.55
21988;BME280;11158;53.404;-1.510;2023-07-29T05:34:08;99165.75;;;20.21;50.44
21988;BME280;11158;53.404;-1.510;2023-07-29T05:36:53;99164.16;;;20.10;51.32
21988;BME280;11158;53.404;-1.510;2023-07-29T05:39:37;99155.66;;;20.27;50.86
21988;BME280;11158;53.404;-1.510;2023-07-29T05:42:21;99165.03;;;20.60;49.66
21988;BME280;11158;53.404;-1.510;2023-07-29T05:45:06;99158.59;;;20.41;50.50
21988;BME280;11158;53.404;-1.510;2023-07-29T05:47:51;99153.53;;;20.79;49.93
21988;BME280;11158;53.404;-1.510;2023-07-29T05:50:35;99157.63;;;20.76;49.57
21988;BME280;11158;53.404;-1.510;2023-07-29T05:53:19;99155.13;;;20.80;49.46
21988;BME280;11158;53.404;-1.510;2023-07-29T05:56:03;99159.09;;;20.53;50.23
21988;BME280;11158;53.404;-1.510;2023-07-29T05:58:48;99169.13;;;20.47;50.52
21988;BME280;11158;53.404;-1.510;2023-07-29T06:01:32;99161.81;;;20.53;50.14
21988;BME280;11158;53.404;-1.510;2023-07-29T06:04:16;99160.38;;;21.10;49.23
21988;BME280;11158;53.404;-1.510;2023-07-29T06:07:00;99161.09;;;21.21;48.87
21988;BME280;11158;53.404;-1.510;2023-07-29T06:09:44;99157.88;;;21.14;48.76
21988;BME280;11158;53.404;-1.510;2023-07-29T06:12:28;99159.09;;;21.32;48.61
21988;BME280;11158;53.404;-1.510;2023-07-29T06:15:12;99169.75;;;21.58;47.82
21988;BME280;11158;53.404;-1.510;2023-07-29T06:17:57;99161.09;;;21.56;48.19
21988;BME280;11158;53.404;-1.510;2023-07-29T06:20:41;99163.03;;;21.79;46.97
21988;BME280;11158;53.404;-1.510;2023-07-29T06:23:26;99166.09;;;21.43;48.06
21988;BME280;11158;53.404;-1.510;2023-07-29T06:26:10;99166.09;;;21.96;47.06
21988;BME280;11158;53.404;-1.510;2023-07-29T06:28:54;99159.78;;;22.01;46.92
21988;BME280;11158;53.404;-1.510;2023-07-29T06:31:38;99160.16;;;21.94;46.70
21988;BME280;11158;53.404;-1.510;2023-07-29T06:34:22;99159.16;;;22.33;46.73
21988;BME280;11158;53.404;-1.510;2023-07-29T06:37:06;99148.66;;;23.82;43.04
21988;BME280;11158;53.404;-1.510;2023-07-29T06:39:50;99149.25;;;25.52;39.87
21988;BME280;11158;53.404;-1.510;2023-07-29T06:42:34;99160.13;;;24.62;40.73
21988;BME280;11158;53.404;-1.510;2023-07-29T06:45:18;99161.59;;;22.92;44.73
21988;BME280;11158;53.404;-1.510;2023-07-29T06:48:02;99165.75;;;22.70;45.37
21988;BME280;11158;53.404;-1.510;2023-07-29T06:50:47;99161.00;;;22.76;45.24
21988;BME280;11158;53.404;-1.510;2023-07-29T06:53:31;99177.34;;;22.38;46.20
21988;BME280;11158;53.404;-1.510;2023-07-29T06:56:15;99169.06;;;21.47;48.35
21988;BME280;11158;53.404;-1.510;2023-07-29T06:58:59;99168.34;;;22.13;47.05
21988;BME280;11158;53.404;-1.510;2023-07-29T07:01:44;99174.56;;;21.66;48.49
21988;BME280;11158;53.404;-1.510;2023-07-29T07:04:28;99166.84;;;20.80;50.26
21988;BME280;11158;53.404;-1.510;2023-07-29T07:07:12;99171.84;;;20.58;50.08
21988;BME280;11158;53.404;-1.510;2023-07-29T07:09:57;99171.31;;;20.50;51.12
21988;BME280;11158;53.404;-1.510;2023-07-29T07:12:41;99161.19;;;20.12;52.00
21988;BME280;11158;53.404;-1.510;2023-07-29T07:15:25;99173.31;;;20.29;51.44
21988;BME280;11158;53.404;-1.510;2023-07-29T07:18:09;99162.97;;;20.37;50.87
21988;BME280;11158;53.404;-1.510;2023-07-29T07:20:54;99161.09;;;20.87;50.24
21988;BME280;11158;53.404;-1.510;2023-07-29T07:23:41;99156.03;;;22.21;46.94
21988;BME280;11158;53.404;-1.510;2023-07-29T07:26:25;99155.38;;;22.72;45.14
21988;BME280;11158;53.404;-1.510;2023-07-29T07:29:09;99159.50;;;22.03;46.82
21988;BME280;11158;53.404;-1.510;2023-07-29T07:31:54;99161.47;;;21.97;46.44
21988;BME280;11158;53.404;-1.510;2023-07-29T07:34:38;99167.06;;;22.06;46.31
21988;BME280;11158;53.404;-1.510;2023-07-29T07:37:22;99165.28;;;21.72;47.09
21988;BME280;11158;53.404;-1.510;2023-07-29T07:40:06;99166.69;;;22.79;44.95
21988;BME280;11158;53.404;-1.510;2023-07-29T07:42:51;99167.97;;;22.25;46.08
21988;BME280;11158;53.404;-1.510;2023-07-29T07:45:35;99167.94;;;22.87;44.96
21988;BME280;11158;53.404;-1.510;2023-07-29T07:48:19;99161.38;;;22.69;45.15
21988;BME280;11158;53.404;-1.510;2023-07-29T07:51:13;99172.03;;;21.99;46.47
21988;BME280;11158;53.404;-1.510;2023-07-29T07:53:57;99170.59;;;21.82;47.56
21988;BME280;11158;53.404;-1.510;2023-07-29T07:56:42;99175.53;;;22.04;46.39
21988;BME280;11158;53.404;-1.510;2023-07-29T07:59:27;99168.53;;;22.84;44.52
21988;BME280;11158;53.404;-1.510;2023-07-29T08:02:11;99169.19;;;23.47;43.50
21988;BME280;11158;53.404;-1.510;2023-07-29T08:04:55;99178.75;;;22.73;44.87
21988;BME280;11158;53.404;-1.510;2023-07-29T08:07:39;99162.19;;;23.08;44.48
21988;BME280;11158;53.404;-1.510;2023-07-29T08:10:24;99173.25;;;23.16;43.83
21988;BME280;11158;53.404;-1.510;2023-07-29T08:13:07;99167.03;;;23.11;43.78
21988;BME280;11158;53.404;-1.510;2023-07-29T08:15:52;99157.25;;;24.03;42.50
21988;BME280;11158;53.404;-1.510;2023-07-29T08:18:36;99165.09;;;24.46;41.71
21988;BME280;11158;53.404;-1.510;2023-07-29T08:21:20;99164.03;;;24.19;41.46
21988;BME280;11158;53.404;-1.510;2023-07-29T08:24:05;99168.59;;;23.63;42.34
21988;BME280;11158;53.404;-1.510;2023-07-29T08:26:50;99164.22;;;22.97;43.27
21988;BME280;11158;53.404;-1.510;2023-07-29T08:29:34;99163.81;;;22.90;43.95
21988;BME280;11158;53.404;-1.510;2023-07-29T08:32:18;99156.75;;;23.54;42.52
21988;BME280;11158;53.404;-1.510;2023-07-29T08:35:02;99155.94;;;23.40;42.41
21988;BME280;11158;53.404;-1.510;2023-07-29T08:37:47;99152.78;;;24.21;41.24
21988;BME280;11158;53.404;-1.510;2023-07-29T08:40:31;99152.78;;;23.33;42.79
21988;BME280;11158;53.404;-1.510;2023-07-29T08:43:19;99149.75;;;22.83;44.42
21988;BME280;11158;53.404;-1.510;2023-07-29T08:46:04;99173.56;;;22.34;46.13
21988;BME280;11158;53.404;-1.510;2023-07-29T08:48:51;99168.22;;;22.48;45.05
21988;BME280;11158;53.404;-1.510;2023-07-29T08:51:36;99163.97;;;21.64;47.07
21988;BME280;11158;53.404;-1.510;2023-07-29T08:54:21;99163.19;;;22.12;45.33
21988;BME280;11158;53.404;-1.510;2023-07-29T08:57:06;99166.56;;;22.28;44.69
21988;BME280;11158;53.404;-1.510;2023-07-29T08:59:51;99157.56;;;22.70;42.73
21988;BME280;11158;53.404;-1.510;2023-07-29T09:02:35;99153.81;;;23.37;41.58
21988;BME280;11158;53.404;-1.510;2023-07-29T09:05:21;99156.38;;;23.61;41.75
21988;BME280;11158;53.404;-1.510;2023-07-29T09:08:05;99155.44;;;23.98;39.79
21988;BME280;11158;53.404;-1.510;2023-07-29T09:10:50;99155.31;;;23.43;40.29
21988;BME280;11158;53.404;-1.510;2023-07-29T09:13:34;99160.00;;;23.56;40.36
21988;BME280;11158;53.404;-1.510;2023-07-29T09:16:22;99161.47;;;23.35;40.73
21988;BME280;11158;53.404;-1.510;2023-07-29T09:19:06;99151.50;;;22.92;41.07
21988;BME280;11158;53.404;-1.510;2023-07-29T09:21:50;99159.25;;;22.85;41.55
21988;BME280;11158;53.404;-1.510;2023-07-29T09:24:35;99159.06;;;23.47;39.76
21988;BME280;11158;53.404;-1.510;2023-07-29T09:27:25;99160.59;;;23.07;40.09
21988;BME280;11158;53.404;-1.510;2023-07-29T09:30:17;99153.56;;;23.19;40.11
21988;BME280;11158;53.404;-1.510;2023-07-29T09:33:01;99157.97;;;22.96;40.62
21988;BME280;11158;53.404;-1.510;2023-07-29T09:35:45;99161.59;;;22.73;39.74
21988;BME280;11158;53.404;-1.510;2023-07-29T09:38:30;99168.75;;;22.50;40.39
21988;BME280;11158;53.404;-1.510;2023-07-29T09:41:15;99164.53;;;22.57;40.37
21988;BME280;11158;53.404;-1.510;2023-07-29T09:44:01;99157.69;;;23.17;39.59
21988;BME280;11158;53.404;-1.510;2023-07-29T09:46:46;99153.47;;;23.25;39.11
21988;BME280;11158;53.404;-1.510;2023-07-29T09:49:35;99150.75;;;23.25;38.58
21988;BME280;11158;53.404;-1.510;2023-07-29T09:52:22;99155.53;;;23.93;37.40
21988;BME280;11158;53.404;-1.510;2023-07-29T09:55:07;99155.22;;;23.95;37.60
21988;BME280;11158;53.404;-1.510;2023-07-29T09:57:56;99154.50;;;24.31;36.26
21988;BME280;11158;53.404;-1.510;2023-07-29T10:00:40;99149.63;;;24.41;37.14
21988;BME280;11158;53.404;-1.510;2023-07-29T10:03:25;99148.31;;;24.39;36.47
21988;BME280;11158;53.404;-1.510;2023-07-29T10:06:10;99147.81;;;24.51;36.30
21988;BME280;11158;53.404;-1.510;2023-07-29T10:08:55;99153.59;;;25.08;34.94
21988;BME280;11158;53.404;-1.510;2023-07-29T10:11:41;99159.56;;;25.10;34.54
21988;BME280;11158;53.404;-1.510;2023-07-29T10:14:27;99155.25;;;23.48;37.20
21988;BME280;11158;53.404;-1.510;2023-07-29T10:17:13;99158.97;;;23.85;37.13
21988;BME280;11158;53.404;-1.510;2023-07-29T10:20:00;99165.84;;;23.96;37.32
21988;BME280;11158;53.404;-1.510;2023-07-29T10:22:47;99162.69;;;24.58;36.73
21988;BME280;11158;53.404;-1.510;2023-07-29T10:25:39;99155.91;;;24.42;36.79
21988;BME280;11158;53.404;-1.510;2023-07-29T10:28:26;99163.78;;;24.43;36.50
21988;BME280;11158;53.404;-1.510;2023-07-29T10:31:15;99153.13;;;24.06;36.29
21988;BME280;11158;53.404;-1.510;2023-07-29T10:34:01;99162.22;;;24.01;36.86
21988;BME280;11158;53.404;-1.510;2023-07-29T10:36:47;99171.75;;;23.71;37.11
21988;BME280;11158;53.404;-1.510;2023-07-29T10:39:39;99161.38;;;24.56;35.98
21988;BME280;11158;53.404;-1.510;2023-07-29T10:42:24;99165.53;;;23.84;37.71
21988;BME280;11158;53.404;-1.510;2023-07-29T10:45:21;99160.84;;;23.24;38.54
21988;BME280;11158;53.404;-1.510;2023-07-29T10:48:13;99182.81;;;22.76;40.90
21988;BME280;11158;53.404;-1.510;2023-07-29T10:56:48;99165.84;;;24.52;38.13
21988;BME280;11158;53.404;-1.510;2023-07-29T10:59:33;99168.66;;;23.91;37.89
21988;BME280;11158;53.404;-1.510;2023-07-29T11:02:18;99158.94;;;23.38;38.09
21988;BME280;11158;53.404;-1.510;2023-07-29T11:05:08;99172.31;;;24.56;36.45
21988;BME280;11158;53.404;-1.510;2023-07-29T11:08:19;99168.44;;;24.57;36.85
21988;BME280;11158;53.404;-1.510;2023-07-29T11:13:48;99173.69;;;23.05;39.77
21988;BME280;11158;53.404;-1.510;2023-07-29T11:16:32;99175.72;;;23.13;40.25
21988;BME280;11158;53.404;-1.510;2023-07-29T11:19:19;99173.97;;;23.55;40.28
21988;BME280;11158;53.404;-1.510;2023-07-29T11:22:04;99168.53;;;23.03;40.22
21988;BME280;11158;53.404;-1.510;2023-07-29T11:24:48;99187.81;;;22.50;41.51
21988;BME280;11158;53.404;-1.510;2023-07-29T11:27:32;99173.16;;;22.84;40.75
21988;BME280;11158;53.404;-1.510;2023-07-29T11:30:16;99179.09;;;23.89;39.65
21988;BME280;11158;53.404;-1.510;2023-07-29T11:33:00;99178.47;;;23.46;39.54
21988;BME280;11158;53.404;-1.510;2023-07-29T11:35:44;99184.22;;;23.91;38.11
21988;BME280;11158;53.404;-1.510;2023-07-29T11:38:28;99196.22;;;23.43;40.70
21988;BME280;11158;53.404;-1.510;2023-07-29T11:41:12;99185.94;;;23.40;40.00
21988;BME280;11158;53.404;-1.510;2023-07-29T11:43:56;99185.84;;;23.12;39.66
21988;BME280;11158;53.404;-1.510;2023-07-29T11:46:40;99201.94;;;22.71;39.88
21988;BME280;11158;53.404;-1.510;2023-07-29T11:49:24;99189.34;;;22.56;39.77
21988;BME280;11158;53.404;-1.510;2023-07-29T11:52:09;99188.44;;;22.42;39.53
21988;BME280;11158;53.404;-1.510;2023-07-29T11:54:54;99183.78;;;23.04;38.91
21988;BME280;11158;53.404;-1.510;2023-07-29T11:57:39;99186.00;;;23.02;38.61
21988;BME280;11158;53.404;-1.510;2023-07-29T12:00:23;99179.03;;;23.75;38.06
21988;BME280;11158;53.404;-1.510;2023-07-29T12:03:09;99180.91;;;23.61;37.02
21988;BME280;11158;53.404;-1.510;2023-07-29T12:05:54;99198.78;;;22.83;35.27
21988;BME280;11158;53.404;-1.510;2023-07-29T12:08:39;99164.22;;;23.02;34.34
21988;BME280;11158;53.404;-1.510;2023-07-29T12:11:23;99181.16;;;23.32;35.52
21988;BME280;11158;53.404;-1.510;2023-07-29T12:14:07;99186.31;;;22.76;35.75
21988;BME280;11158;53.404;-1.510;2023-07-29T12:16:52;99180.56;;;23.35;36.34
21988;BME280;11158;53.404;-1.510;2023-07-29T12:19:38;99179.28;;;23.46;36.48
21988;BME280;11158;53.404;-1.510;2023-07-29T12:22:24;99193.78;;;23.28;34.82
21988;BME280;11158;53.404;-1.510;2023-07-29T12:25:08;99193.72;;;23.47;35.02
21988;BME280;11158;53.404;-1.510;2023-07-29T12:27:52;99200.91;;;23.56;35.24
21988;BME280;11158;53.404;-1.510;2023-07-29T12:30:43;99173.59;;;23.75;34.44
21988;BME280;11158;53.404;-1.510;2023-07-29T12:33:31;99177.84;;;23.81;34.38
21988;BME280;11158;53.404;-1.510;2023-07-29T12:36:16;99192.53;;;24.27;34.18
21988;BME280;11158;53.404;-1.510;2023-07-29T12:39:01;99187.75;;;24.97;33.16
21988;BME280;11158;53.404;-1.510;2023-07-29T12:41:47;99176.50;;;24.62;34.51
21988;BME280;11158;53.404;-1.510;2023-07-29T12:44:33;99181.81;;;23.89;35.61
21988;BME280;11158;53.404;-1.510;2023-07-29T12:47:17;99188.19;;;23.66;35.62
21988;BME280;11158;53.404;-1.510;2023-07-29T12:50:01;99197.59;;;24.06;35.90
21988;BME280;11158;53.404;-1.510;2023-07-29T12:52:45;99203.44;;;23.86;35.54
21988;BME280;11158;53.404;-1.510;2023-07-29T12:55:30;99209.09;;;23.56;36.32
21988;BME280;11158;53.404;-1.510;2023-07-29T12:58:14;99201.41;;;24.19;35.02
21988;BME280;11158;53.404;-1.510;2023-07-29T13:00:58;99194.13;;;23.54;36.19
21988;BME280;11158;53.404;-1.510;2023-07-29T13:03:43;99191.84;;;24.08;36.13
21988;BME280;11158;53.404;-1.510;2023-07-29T13:06:27;99201.25;;;23.69;35.38
21988;BME280;11158;53.404;-1.510;2023-07-29T13:09:11;99194.00;;;23.45;36.31
21988;BME280;11158;53.404;-1.510;2023-07-29T13:11:55;99187.56;;;24.01;35.49
21988;BME280;11158;53.404;-1.510;2023-07-29T13:14:40;99212.97;;;23.36;36.62
21988;BME280;11158;53.404;-1.510;2023-07-29T13:17:24;99197.28;;;23.94;36.53
21988;BME280;11158;53.404;-1.510;2023-07-29T13:20:09;99204.34;;;23.95;36.09
21988;BME280;11158;53.404;-1.510;2023-07-29T13:22:52;99203.66;;;24.44;35.09
21988;BME280;11158;53.404;-1.510;2023-07-29T13:25:36;99201.63;;;24.22;36.12
21988;BME280;11158;53.404;-1.510;2023-07-29T13:28:20;99214.19;;;24.51;35.20
21988;BME280;11158;53.404;-1.510;2023-07-29T13:31:04;99204.66;;;24.49;34.84
21988;BME280;11158;53.404;-1.510;2023-07-29T13:33:49;99209.09;;;25.08;32.96
21988;BME280;11158;53.404;-1.510;2023-07-29T13:36:33;99213.34;;;24.51;32.39
21988;BME280;11158;53.404;-1.510;2023-07-29T13:39:18;99213.72;;;24.85;32.68
21988;BME280;11158;53.404;-1.510;2023-07-29T13:42:02;99231.59;;;25.28;33.17
21988;BME280;11158;53.404;-1.510;2023-07-29T13:44:46;99217.34;;;24.95;32.71
21988;BME280;11158;53.404;-1.510;2023-07-29T13:47:30;99217.75;;;25.24;32.36
21988;BME280;11158;53.404;-1.510;2023-07-29T13:50:15;99206.81;;;24.88;30.00
21988;BME280;11158;53.404;-1.510;2023-07-29T13:52:59;99212.84;;;24.49;31.54
21988;BME280;11158;53.404;-1.510;2023-07-29T13:55:43;99219.69;;;25.10;30.58
21988;BME280;11158;53.404;-1.510;2023-07-29T13:58:27;99209.69;;;24.00;31.84
21988;BME280;11158;53.404;-1.510;2023-07-29T14:01:11;99216.81;;;24.29;32.31
21988;BME280;11158;53.404;-1.510;2023-07-29T14:03:55;99218.59;;;24.75;31.69
21988;BME280;11158;53.404;-1.510;2023-07-29T14:06:39;99221.91;;;25.22;31.52
21988;BME280;11158;53.404;-1.510;2023-07-29T14:09:23;99221.22;;;24.80;31.78
21988;BME280;11158;53.404;-1.510;2023-07-29T14:12:07;99231.25;;;25.07;32.07
21988;BME280;11158;53.404;-1.510;2023-07-29T14:14:51;99222.69;;;25.67;31.72
21988;BME280;11158;53.404;-1.510;2023-07-29T14:17:36;99223.94;;;25.16;31.12
21988;BME280;11158;53.404;-1.510;2023-07-29T14:20:20;99225.59;;;25.03;32.39
21988;BME280;11158;53.404;-1.510;2023-07-29T14:23:04;99237.44;;;24.62;32.45
21988;BME280;11158;53.404;-1.510;2023-07-29T14:25:48;99238.25;;;24.35;32.88
21988;BME280;11158;53.404;-1.510;2023-07-29T14:28:32;99234.03;;;25.29;32.35
21988;BME280;11158;53.404;-1.510;2023-07-29T14:31:17;99223.72;;;26.51;31.08
21988;BME280;11158;53.404;-1.510;2023-07-29T14:34:01;99224.94;;;27.11;30.92
21988;BME280;11158;53.404;-1.510;2023-07-29T14:36:46;99233.13;;;26.68;31.26
21988;BME280;11158;53.404;-1.510;2023-07-29T14:39:30;99237.22;;;25.77;32.31